RYR1J LGRP-LOWW
Flight info
| Callsign | RYR1J |
|---|---|
| Flight time | 2h 34m |
| Altitude | 36000 |
| Route | VANES UM601 ADESO UN133 PEREN UL863 EVIVI DCT OKANA DCT PARAK DCT BALUX DCT TORNO DCT NATEX NATEX2W |
| Aircraft | B738/M-SDE3FGILRWY/SB1 |
Departure
| Time | 2026-04-22 16:29 |
|---|---|
| Airport | Rhodes International Airport "Diagoras" (LGRP) |
Arrival
| Time | 2026-04-22 19:03 |
|---|---|
| Airport | Vienna International Airport (LOWW) |
| Time | Latitude | Longitude | Altitude | Speed | Heading |
|---|---|---|---|---|---|
| 2026-04-22 16:03 | 36.40306 | 28.08921 | 27 ft | 0 kts | 160° |
| 2026-04-22 16:19 | 36.40319 | 28.08914 | 27 ft | 4 kts | 160° |
| 2026-04-22 16:20 | 36.40344 | 28.08903 | 27 ft | 4 kts | 165° |
| 2026-04-22 16:20 | 36.40371 | 28.08898 | 27 ft | 4 kts | 188° |
| 2026-04-22 16:20 | 36.40392 | 28.08909 | 27 ft | 4 kts | 242° |
| 2026-04-22 16:20 | 36.40396 | 28.08928 | 27 ft | 3 kts | 268° |
| 2026-04-22 16:21 | 36.40396 | 28.08948 | 27 ft | 0 kts | 268° |
| 2026-04-22 16:23 | 36.40396 | 28.08939 | 27 ft | 4 kts | 270° |
| 2026-04-22 16:24 | 36.40399 | 28.08871 | 27 ft | 11 kts | 278° |
| 2026-04-22 16:24 | 36.40378 | 28.08690 | 27 ft | 10 kts | 247° |
| 2026-04-22 16:24 | 36.40353 | 28.08607 | 27 ft | 10 kts | 250° |
| 2026-04-22 16:25 | 36.40325 | 28.08513 | 27 ft | 14 kts | 250° |
| 2026-04-22 16:25 | 36.40235 | 28.08204 | 27 ft | 23 kts | 250° |
| 2026-04-22 16:25 | 36.40183 | 28.08024 | 27 ft | 22 kts | 250° |
| 2026-04-22 16:26 | 36.40130 | 28.07849 | 27 ft | 21 kts | 250° |
| 2026-04-22 16:26 | 36.40081 | 28.07678 | 27 ft | 21 kts | 250° |
| 2026-04-22 16:26 | 36.40031 | 28.07513 | 27 ft | 20 kts | 249° |
| 2026-04-22 16:26 | 36.39984 | 28.07353 | 26 ft | 19 kts | 251° |
| 2026-04-22 16:27 | 36.39939 | 28.07197 | 26 ft | 19 kts | 250° |
| 2026-04-22 16:27 | 36.39898 | 28.07057 | 27 ft | 15 kts | 250° |
| 2026-04-22 16:27 | 36.39921 | 28.06952 | 27 ft | 15 kts | 338° |
| 2026-04-22 16:27 | 36.40015 | 28.06921 | 28 ft | 14 kts | 2° |
| 2026-04-22 16:28 | 36.40056 | 28.06975 | 27 ft | 0 kts | 69° |
| 2026-04-22 16:28 | 36.40099 | 28.07120 | 27 ft | 51 kts | 70° |
| 2026-04-22 16:28 | 36.40303 | 28.07818 | 27 ft | 119 kts | 70° |
| 2026-04-22 16:28 | 36.40651 | 28.09026 | 74 ft | 169 kts | 72° |
| 2026-04-22 16:29 | 36.41078 | 28.10430 | 788 ft | 172 kts | 66° |
| 2026-04-22 16:29 | 36.41658 | 28.11769 | 1429 ft | 185 kts | 61° |
| 2026-04-22 16:29 | 36.42353 | 28.13259 | 1691 ft | 212 kts | 60° |
| 2026-04-22 16:29 | 36.43128 | 28.14906 | 2033 ft | 226 kts | 60° |
| 2026-04-22 16:30 | 36.43669 | 28.16057 | 2355 ft | 230 kts | 60° |
| 2026-04-22 16:30 | 36.44760 | 28.18381 | 3113 ft | 236 kts | 61° |
| 2026-04-22 16:30 | 36.45594 | 28.20159 | 3742 ft | 241 kts | 60° |
| 2026-04-22 16:30 | 36.46437 | 28.21959 | 4487 ft | 243 kts | 60° |
| 2026-04-22 16:31 | 36.47017 | 28.23198 | 4948 ft | 246 kts | 59° |
| 2026-04-22 16:31 | 36.47881 | 28.25048 | 5627 ft | 250 kts | 59° |
| 2026-04-22 16:31 | 36.48761 | 28.26931 | 6312 ft | 253 kts | 58° |
| 2026-04-22 16:31 | 36.49634 | 28.28853 | 6955 ft | 258 kts | 65° |
| 2026-04-22 16:32 | 36.49794 | 28.31760 | 7759 ft | 262 kts | 111° |
| 2026-04-22 16:32 | 36.49233 | 28.33108 | 8183 ft | 260 kts | 132° |
| 2026-04-22 16:32 | 36.47836 | 28.34474 | 8792 ft | 256 kts | 162° |
| 2026-04-22 16:32 | 36.46111 | 28.34885 | 9421 ft | 253 kts | 184° |
| 2026-04-22 16:33 | 36.44351 | 28.34800 | 10079 ft | 254 kts | 188° |
| 2026-04-22 16:33 | 36.42581 | 28.34625 | 10674 ft | 257 kts | 189° |
| 2026-04-22 16:33 | 36.40793 | 28.34445 | 11310 ft | 259 kts | 189° |
| 2026-04-22 16:33 | 36.38981 | 28.34278 | 11949 ft | 262 kts | 189° |
| 2026-04-22 16:34 | 36.37150 | 28.34123 | 12604 ft | 265 kts | 189° |
| 2026-04-22 16:34 | 36.35302 | 28.33974 | 13275 ft | 268 kts | 189° |
| 2026-04-22 16:34 | 36.33425 | 28.33826 | 13928 ft | 271 kts | 189° |
| 2026-04-22 16:34 | 36.31555 | 28.33552 | 14510 ft | 269 kts | 204° |
| 2026-04-22 16:35 | 36.30018 | 28.32366 | 15108 ft | 258 kts | 233° |
| 2026-04-22 16:35 | 36.29124 | 28.30464 | 15594 ft | 261 kts | 256° |
| 2026-04-22 16:35 | 36.28937 | 28.28169 | 15748 ft | 280 kts | 277° |
| 2026-04-22 16:35 | 36.29417 | 28.25747 | 15930 ft | 300 kts | 286° |
| 2026-04-22 16:36 | 36.30086 | 28.23196 | 16078 ft | 321 kts | 287° |
| 2026-04-22 16:36 | 36.30814 | 28.20491 | 16231 ft | 340 kts | 287° |
| 2026-04-22 16:36 | 36.31567 | 28.17649 | 16577 ft | 352 kts | 287° |
| 2026-04-22 16:36 | 36.32326 | 28.14725 | 17060 ft | 359 kts | 287° |
| 2026-04-22 16:37 | 36.33084 | 28.11763 | 17732 ft | 361 kts | 287° |
| 2026-04-22 16:37 | 36.33837 | 28.08802 | 18375 ft | 363 kts | 287° |
| 2026-04-22 16:37 | 36.34456 | 28.05704 | 18984 ft | 364 kts | 280° |
| 2026-04-22 16:37 | 36.34860 | 28.02639 | 19566 ft | 366 kts | 278° |
| 2026-04-22 16:38 | 36.35204 | 27.99636 | 20038 ft | 370 kts | 278° |
| 2026-04-22 16:38 | 36.35561 | 27.96519 | 20621 ft | 371 kts | 278° |
| 2026-04-22 16:38 | 36.35937 | 27.93363 | 21083 ft | 375 kts | 279° |
| 2026-04-22 16:38 | 36.36342 | 27.90086 | 21617 ft | 378 kts | 279° |
| 2026-04-22 16:39 | 36.36752 | 27.86856 | 22148 ft | 380 kts | 279° |
| 2026-04-22 16:39 | 36.37167 | 27.83612 | 22668 ft | 382 kts | 279° |
| 2026-04-22 16:39 | 36.37588 | 27.80335 | 23094 ft | 387 kts | 279° |
| 2026-04-22 16:39 | 36.38012 | 27.77030 | 23568 ft | 389 kts | 279° |
| 2026-04-22 16:40 | 36.38436 | 27.73707 | 23965 ft | 391 kts | 279° |
| 2026-04-22 16:40 | 36.38860 | 27.70372 | 24399 ft | 392 kts | 279° |
| 2026-04-22 16:40 | 36.39705 | 27.63653 | 25200 ft | 396 kts | 279° |
| 2026-04-22 16:41 | 36.40129 | 27.60271 | 25597 ft | 397 kts | 279° |
| 2026-04-22 16:41 | 36.40553 | 27.56874 | 25975 ft | 399 kts | 279° |
| 2026-04-22 16:41 | 36.40979 | 27.53460 | 26346 ft | 401 kts | 279° |
| 2026-04-22 16:41 | 36.41406 | 27.50029 | 26712 ft | 403 kts | 279° |
| 2026-04-22 16:42 | 36.41834 | 27.46589 | 27083 ft | 404 kts | 279° |
| 2026-04-22 16:42 | 36.42261 | 27.43142 | 27487 ft | 404 kts | 279° |
| 2026-04-22 16:42 | 36.42688 | 27.39690 | 27833 ft | 406 kts | 279° |
| 2026-04-22 16:42 | 36.43118 | 27.36203 | 28131 ft | 410 kts | 279° |
| 2026-04-22 16:43 | 36.43549 | 27.32704 | 28483 ft | 410 kts | 279° |
| 2026-04-22 16:43 | 36.43979 | 27.29201 | 28894 ft | 410 kts | 279° |
| 2026-04-22 16:43 | 36.44407 | 27.25710 | 29368 ft | 408 kts | 279° |
| 2026-04-22 16:43 | 36.44830 | 27.22240 | 29905 ft | 405 kts | 278° |
| 2026-04-22 16:44 | 36.45251 | 27.18789 | 30321 ft | 403 kts | 278° |
| 2026-04-22 16:44 | 36.45668 | 27.15355 | 30662 ft | 402 kts | 278° |
| 2026-04-22 16:44 | 36.46085 | 27.11921 | 31011 ft | 401 kts | 278° |
| 2026-04-22 16:44 | 36.46499 | 27.08501 | 31390 ft | 400 kts | 278° |
| 2026-04-22 16:45 | 36.46910 | 27.05101 | 31760 ft | 398 kts | 279° |
| 2026-04-22 16:45 | 36.47333 | 27.01703 | 32102 ft | 397 kts | 279° |
| 2026-04-22 16:45 | 36.47740 | 26.98479 | 32421 ft | 396 kts | 279° |
| 2026-04-22 16:45 | 36.48163 | 26.95114 | 32778 ft | 395 kts | 279° |
| 2026-04-22 16:46 | 36.48591 | 26.91692 | 33129 ft | 394 kts | 279° |
| 2026-04-22 16:46 | 36.49004 | 26.88334 | 33465 ft | 392 kts | 278° |
| 2026-04-22 16:46 | 36.49400 | 26.84982 | 33818 ft | 391 kts | 278° |
| 2026-04-22 16:46 | 36.49785 | 26.81652 | 34156 ft | 389 kts | 278° |
| 2026-04-22 16:47 | 36.50169 | 26.78325 | 34404 ft | 389 kts | 278° |
| 2026-04-22 16:47 | 36.50552 | 26.75003 | 34603 ft | 389 kts | 278° |
| 2026-04-22 16:47 | 36.50942 | 26.71628 | 34841 ft | 389 kts | 278° |
| 2026-04-22 16:47 | 36.51326 | 26.68305 | 35099 ft | 388 kts | 278° |
| 2026-04-22 16:48 | 36.51709 | 26.64988 | 35345 ft | 388 kts | 278° |
| 2026-04-22 16:48 | 36.52091 | 26.61670 | 35577 ft | 387 kts | 278° |
| 2026-04-22 16:48 | 36.52472 | 26.58352 | 35795 ft | 387 kts | 278° |
| 2026-04-22 16:48 | 36.53113 | 26.55108 | 35919 ft | 390 kts | 292° |
| 2026-04-22 16:49 | 36.54483 | 26.52237 | 35960 ft | 396 kts | 304° |
| 2026-04-22 16:49 | 36.56392 | 26.49677 | 35942 ft | 402 kts | 316° |
| 2026-04-22 16:49 | 36.58742 | 26.47767 | 35953 ft | 408 kts | 327° |
| 2026-04-22 16:50 | 36.63890 | 26.44767 | 35944 ft | 407 kts | 330° |
| 2026-04-22 16:50 | 36.69035 | 26.41869 | 35949 ft | 404 kts | 329° |
| 2026-04-22 16:51 | 36.74125 | 26.38933 | 35950 ft | 402 kts | 329° |
| 2026-04-22 16:51 | 36.79183 | 26.35974 | 35949 ft | 401 kts | 328° |
| 2026-04-22 16:52 | 36.84228 | 26.33010 | 35957 ft | 401 kts | 328° |
| 2026-04-22 16:52 | 36.89245 | 26.30059 | 35946 ft | 401 kts | 328° |
| 2026-04-22 16:53 | 36.94339 | 26.27059 | 35951 ft | 403 kts | 328° |
| 2026-04-22 16:53 | 36.99414 | 26.24059 | 35948 ft | 404 kts | 328° |
| 2026-04-22 16:54 | 37.04470 | 26.20980 | 35949 ft | 405 kts | 328° |
| 2026-04-22 16:54 | 37.09504 | 26.17891 | 35942 ft | 406 kts | 328° |
| 2026-04-22 16:55 | 37.14618 | 26.14756 | 35945 ft | 406 kts | 328° |
| 2026-04-22 16:55 | 37.19700 | 26.11641 | 35944 ft | 406 kts | 328° |
| 2026-04-22 16:56 | 37.24754 | 26.08540 | 35941 ft | 406 kts | 328° |
| 2026-04-22 16:56 | 37.29865 | 26.05400 | 35947 ft | 405 kts | 328° |
| 2026-04-22 16:57 | 37.34939 | 26.02277 | 35941 ft | 404 kts | 328° |
| 2026-04-22 16:57 | 37.39838 | 25.99258 | 35946 ft | 403 kts | 328° |
| 2026-04-22 16:58 | 37.44017 | 25.96678 | 35949 ft | 402 kts | 328° |
| 2026-04-22 16:58 | 37.49878 | 25.93054 | 35949 ft | 401 kts | 328° |
| 2026-04-22 16:59 | 37.54871 | 25.89962 | 35957 ft | 400 kts | 328° |
| 2026-04-22 16:59 | 37.59870 | 25.86863 | 35955 ft | 400 kts | 328° |
| 2026-04-22 17:00 | 37.64856 | 25.83771 | 35959 ft | 399 kts | 328° |
| 2026-04-22 17:00 | 37.72324 | 25.79132 | 35960 ft | 398 kts | 328° |
| 2026-04-22 17:01 | 37.77297 | 25.76033 | 35959 ft | 399 kts | 328° |
| 2026-04-22 17:01 | 37.82273 | 25.72929 | 35957 ft | 399 kts | 328° |
| 2026-04-22 17:02 | 37.87253 | 25.69817 | 35957 ft | 399 kts | 328° |
| 2026-04-22 17:02 | 37.92241 | 25.66696 | 35957 ft | 400 kts | 328° |
| 2026-04-22 17:03 | 37.97234 | 25.63568 | 35968 ft | 401 kts | 328° |
| 2026-04-22 17:03 | 38.02218 | 25.60441 | 35980 ft | 401 kts | 327° |
| 2026-04-22 17:04 | 38.07220 | 25.57297 | 35957 ft | 401 kts | 327° |
| 2026-04-22 17:04 | 38.12217 | 25.54152 | 35951 ft | 400 kts | 327° |
| 2026-04-22 17:05 | 38.16348 | 25.51549 | 35964 ft | 399 kts | 327° |
| 2026-04-22 17:05 | 38.21310 | 25.48417 | 35962 ft | 397 kts | 327° |
| 2026-04-22 17:06 | 38.26252 | 25.45293 | 35992 ft | 396 kts | 327° |
| 2026-04-22 17:06 | 38.31187 | 25.42168 | 35975 ft | 396 kts | 327° |
| 2026-04-22 17:07 | 38.36108 | 25.39046 | 35966 ft | 395 kts | 327° |
| 2026-04-22 17:07 | 38.41020 | 25.35927 | 35967 ft | 394 kts | 327° |
| 2026-04-22 17:08 | 38.45918 | 25.32812 | 35975 ft | 393 kts | 327° |
| 2026-04-22 17:08 | 38.50819 | 25.29689 | 35987 ft | 393 kts | 327° |
| 2026-04-22 17:09 | 38.55714 | 25.26566 | 35980 ft | 393 kts | 327° |
| 2026-04-22 17:09 | 38.60598 | 25.23444 | 35974 ft | 393 kts | 327° |
| 2026-04-22 17:10 | 38.65495 | 25.20310 | 35976 ft | 393 kts | 327° |
| 2026-04-22 17:10 | 38.70382 | 25.17177 | 35977 ft | 393 kts | 327° |
| 2026-04-22 17:11 | 38.75264 | 25.14043 | 35981 ft | 393 kts | 327° |
| 2026-04-22 17:11 | 38.80156 | 25.10897 | 35990 ft | 393 kts | 327° |
| 2026-04-22 17:12 | 38.85045 | 25.07749 | 35982 ft | 393 kts | 327° |
| 2026-04-22 17:12 | 38.89935 | 25.04595 | 35980 ft | 393 kts | 327° |
| 2026-04-22 17:13 | 38.94821 | 25.01439 | 36000 ft | 393 kts | 327° |
| 2026-04-22 17:13 | 38.99559 | 24.98374 | 35992 ft | 391 kts | 327° |
| 2026-04-22 17:14 | 39.04392 | 24.95242 | 36004 ft | 388 kts | 326° |
| 2026-04-22 17:14 | 39.09196 | 24.92126 | 35991 ft | 385 kts | 326° |
| 2026-04-22 17:15 | 39.13985 | 24.89100 | 35989 ft | 382 kts | 327° |
| 2026-04-22 17:15 | 39.18767 | 24.86158 | 35992 ft | 379 kts | 327° |
| 2026-04-22 17:16 | 39.23510 | 24.83228 | 35994 ft | 378 kts | 327° |
| 2026-04-22 17:16 | 39.28247 | 24.80285 | 36003 ft | 378 kts | 327° |
| 2026-04-22 17:17 | 39.32987 | 24.77333 | 36001 ft | 379 kts | 327° |
| 2026-04-22 17:17 | 39.37744 | 24.74365 | 36009 ft | 381 kts | 327° |
| 2026-04-22 17:18 | 39.42525 | 24.71378 | 36016 ft | 383 kts | 327° |
| 2026-04-22 17:18 | 39.47333 | 24.68372 | 36025 ft | 385 kts | 327° |
| 2026-04-22 17:19 | 39.57021 | 24.62302 | 36015 ft | 388 kts | 327° |
| 2026-04-22 17:20 | 39.66742 | 24.56199 | 36015 ft | 387 kts | 327° |
| 2026-04-22 17:21 | 39.73971 | 24.51646 | 36039 ft | 386 kts | 327° |
| 2026-04-22 17:22 | 39.81243 | 24.47053 | 36029 ft | 385 kts | 327° |
| 2026-04-22 17:23 | 39.88456 | 24.42488 | 36029 ft | 384 kts | 327° |
| 2026-04-22 17:23 | 39.95643 | 24.37928 | 36043 ft | 383 kts | 326° |
| 2026-04-22 17:24 | 40.00421 | 24.34889 | 36035 ft | 383 kts | 326° |
| 2026-04-22 17:24 | 40.05182 | 24.31858 | 36026 ft | 383 kts | 326° |
| 2026-04-22 17:25 | 40.09972 | 24.28803 | 36027 ft | 383 kts | 326° |
| 2026-04-22 17:25 | 40.14764 | 24.25742 | 36030 ft | 383 kts | 326° |
| 2026-04-22 17:26 | 40.19555 | 24.22677 | 36031 ft | 383 kts | 326° |
| 2026-04-22 17:26 | 40.24354 | 24.19602 | 36035 ft | 384 kts | 326° |
| 2026-04-22 17:27 | 40.29160 | 24.16518 | 36034 ft | 385 kts | 326° |
| 2026-04-22 17:27 | 40.33966 | 24.13423 | 36032 ft | 385 kts | 326° |
| 2026-04-22 17:28 | 40.38777 | 24.10328 | 36031 ft | 385 kts | 326° |
| 2026-04-22 17:28 | 40.43582 | 24.07233 | 36059 ft | 385 kts | 326° |
| 2026-04-22 17:29 | 40.48394 | 24.04125 | 36042 ft | 386 kts | 326° |
| 2026-04-22 17:29 | 40.53213 | 24.01007 | 36035 ft | 386 kts | 326° |
| 2026-04-22 17:30 | 40.57923 | 23.97955 | 36038 ft | 386 kts | 326° |
| 2026-04-22 17:30 | 40.62759 | 23.94855 | 36038 ft | 387 kts | 326° |
| 2026-04-22 17:31 | 40.67625 | 23.91810 | 36079 ft | 387 kts | 327° |
| 2026-04-22 17:31 | 40.72501 | 23.88756 | 36053 ft | 389 kts | 326° |
| 2026-04-22 17:32 | 40.77391 | 23.85679 | 36036 ft | 389 kts | 326° |
| 2026-04-22 17:32 | 40.82283 | 23.82593 | 36040 ft | 390 kts | 326° |
| 2026-04-22 17:33 | 40.87177 | 23.79500 | 36035 ft | 390 kts | 326° |
| 2026-04-22 17:33 | 40.92083 | 23.76393 | 36055 ft | 392 kts | 327° |
| 2026-04-22 17:34 | 40.97006 | 23.73269 | 36044 ft | 393 kts | 327° |
| 2026-04-22 17:34 | 41.01919 | 23.70147 | 36036 ft | 394 kts | 327° |
| 2026-04-22 17:35 | 41.06858 | 23.67004 | 36037 ft | 394 kts | 327° |
| 2026-04-22 17:35 | 41.11802 | 23.63853 | 36028 ft | 394 kts | 327° |
| 2026-04-22 17:36 | 41.16745 | 23.60683 | 36064 ft | 394 kts | 327° |
| 2026-04-22 17:36 | 41.21708 | 23.57524 | 36029 ft | 395 kts | 327° |
| 2026-04-22 17:37 | 41.26653 | 23.54356 | 36030 ft | 395 kts | 327° |
| 2026-04-22 17:37 | 41.31607 | 23.51181 | 36030 ft | 396 kts | 327° |
| 2026-04-22 17:38 | 41.36570 | 23.48005 | 36078 ft | 395 kts | 327° |
| 2026-04-22 17:38 | 41.41536 | 23.44804 | 36038 ft | 398 kts | 327° |
| 2026-04-22 17:39 | 41.46518 | 23.41562 | 36023 ft | 399 kts | 327° |
| 2026-04-22 17:40 | 41.54000 | 23.36671 | 36035 ft | 400 kts | 327° |
| 2026-04-22 17:40 | 41.59004 | 23.33396 | 36040 ft | 401 kts | 327° |
| 2026-04-22 17:41 | 41.64030 | 23.30101 | 36042 ft | 403 kts | 327° |
| 2026-04-22 17:41 | 41.69075 | 23.26789 | 36040 ft | 405 kts | 327° |
| 2026-04-22 17:42 | 41.74138 | 23.23459 | 36042 ft | 406 kts | 327° |
| 2026-04-22 17:42 | 41.78384 | 23.20662 | 36038 ft | 406 kts | 327° |
| 2026-04-22 17:43 | 41.84274 | 23.16776 | 36050 ft | 406 kts | 327° |
| 2026-04-22 17:43 | 41.89346 | 23.13423 | 36035 ft | 407 kts | 327° |
| 2026-04-22 17:44 | 41.94418 | 23.10063 | 36037 ft | 407 kts | 328° |
| 2026-04-22 17:44 | 41.99490 | 23.06699 | 36042 ft | 406 kts | 328° |
| 2026-04-22 17:45 | 42.04527 | 23.03351 | 36045 ft | 405 kts | 328° |
| 2026-04-22 17:45 | 42.09576 | 22.99989 | 36060 ft | 405 kts | 328° |
| 2026-04-22 17:46 | 42.14528 | 22.96685 | 36054 ft | 405 kts | 328° |
| 2026-04-22 17:46 | 42.19583 | 22.93306 | 36045 ft | 406 kts | 328° |
| 2026-04-22 17:47 | 42.24647 | 22.89915 | 36052 ft | 406 kts | 328° |
| 2026-04-22 17:47 | 42.28857 | 22.87091 | 36062 ft | 408 kts | 328° |
| 2026-04-22 17:48 | 42.33926 | 22.83686 | 36049 ft | 409 kts | 328° |
| 2026-04-22 17:48 | 42.39870 | 22.79685 | 36051 ft | 410 kts | 328° |
| 2026-04-22 17:49 | 42.44984 | 22.76236 | 36050 ft | 411 kts | 328° |
| 2026-04-22 17:49 | 42.49264 | 22.73345 | 36061 ft | 411 kts | 328° |
| 2026-04-22 17:50 | 42.54391 | 22.69877 | 36054 ft | 412 kts | 328° |
| 2026-04-22 17:50 | 42.59516 | 22.66402 | 36055 ft | 411 kts | 328° |
| 2026-04-22 17:51 | 42.64630 | 22.62929 | 36059 ft | 411 kts | 328° |
| 2026-04-22 17:51 | 42.69736 | 22.59454 | 36056 ft | 410 kts | 328° |
| 2026-04-22 17:52 | 42.74837 | 22.55976 | 36068 ft | 410 kts | 328° |
| 2026-04-22 17:52 | 42.79908 | 22.52513 | 36057 ft | 410 kts | 328° |
| 2026-04-22 17:53 | 42.85010 | 22.49022 | 36060 ft | 411 kts | 328° |
| 2026-04-22 17:53 | 42.90127 | 22.45542 | 36055 ft | 411 kts | 329° |
| 2026-04-22 17:54 | 42.95284 | 22.42038 | 36087 ft | 412 kts | 329° |
| 2026-04-22 17:54 | 43.00370 | 22.38576 | 36072 ft | 413 kts | 329° |
| 2026-04-22 17:55 | 43.05514 | 22.35064 | 36076 ft | 414 kts | 329° |
| 2026-04-22 17:55 | 43.10663 | 22.31540 | 36070 ft | 414 kts | 329° |
| 2026-04-22 17:56 | 43.15814 | 22.28011 | 36071 ft | 414 kts | 329° |
| 2026-04-22 17:56 | 43.20956 | 22.24480 | 36079 ft | 413 kts | 329° |
| 2026-04-22 17:57 | 43.26106 | 22.20936 | 36075 ft | 415 kts | 329° |
| 2026-04-22 17:57 | 43.31270 | 22.17375 | 36062 ft | 416 kts | 329° |
| 2026-04-22 17:58 | 43.36438 | 22.13805 | 36072 ft | 416 kts | 329° |
| 2026-04-22 17:58 | 43.41620 | 22.10218 | 36066 ft | 418 kts | 330° |
| 2026-04-22 17:59 | 43.46848 | 22.06594 | 36059 ft | 418 kts | 330° |
| 2026-04-22 17:59 | 43.52008 | 22.03009 | 36060 ft | 419 kts | 330° |
| 2026-04-22 18:00 | 43.56355 | 21.99984 | 36069 ft | 419 kts | 330° |
| 2026-04-22 18:00 | 43.62274 | 21.95855 | 36100 ft | 419 kts | 330° |
| 2026-04-22 18:01 | 43.67478 | 21.92219 | 36089 ft | 420 kts | 330° |
| 2026-04-22 18:01 | 43.72694 | 21.88568 | 36084 ft | 420 kts | 330° |
| 2026-04-22 18:02 | 43.77904 | 21.84913 | 36091 ft | 420 kts | 330° |
| 2026-04-22 18:02 | 43.83124 | 21.81244 | 36074 ft | 421 kts | 330° |
| 2026-04-22 18:03 | 43.88336 | 21.77573 | 36094 ft | 421 kts | 330° |
| 2026-04-22 18:03 | 43.93555 | 21.73890 | 36092 ft | 421 kts | 330° |
| 2026-04-22 18:04 | 43.98771 | 21.70202 | 36109 ft | 421 kts | 330° |
| 2026-04-22 18:04 | 44.03934 | 21.66544 | 36102 ft | 421 kts | 330° |
| 2026-04-22 18:05 | 44.09234 | 21.62781 | 36116 ft | 422 kts | 330° |
| 2026-04-22 18:05 | 44.14459 | 21.59065 | 36115 ft | 422 kts | 331° |
| 2026-04-22 18:06 | 44.19650 | 21.55364 | 36109 ft | 423 kts | 331° |
| 2026-04-22 18:06 | 44.24892 | 21.51621 | 36109 ft | 423 kts | 331° |
| 2026-04-22 18:07 | 44.30129 | 21.47873 | 36110 ft | 423 kts | 331° |
| 2026-04-22 18:07 | 44.35413 | 21.44084 | 36113 ft | 424 kts | 331° |
| 2026-04-22 18:08 | 44.40629 | 21.40336 | 36106 ft | 425 kts | 331° |
| 2026-04-22 18:08 | 44.45882 | 21.36555 | 36110 ft | 425 kts | 331° |
| 2026-04-22 18:09 | 44.51142 | 21.32759 | 36113 ft | 425 kts | 331° |
| 2026-04-22 18:09 | 44.56404 | 21.28956 | 36113 ft | 426 kts | 332° |
| 2026-04-22 18:10 | 44.61701 | 21.25119 | 36120 ft | 426 kts | 332° |
| 2026-04-22 18:10 | 44.66927 | 21.21325 | 36115 ft | 425 kts | 332° |
| 2026-04-22 18:11 | 44.72215 | 21.17478 | 36118 ft | 425 kts | 332° |
| 2026-04-22 18:11 | 44.77451 | 21.13662 | 36114 ft | 425 kts | 332° |
| 2026-04-22 18:12 | 44.82719 | 21.09814 | 36121 ft | 425 kts | 332° |
| 2026-04-22 18:12 | 44.87081 | 21.06622 | 36120 ft | 425 kts | 332° |
| 2026-04-22 18:13 | 44.93202 | 21.02133 | 36127 ft | 424 kts | 332° |
| 2026-04-22 18:13 | 44.98312 | 20.98378 | 36127 ft | 424 kts | 332° |
| 2026-04-22 18:14 | 45.03506 | 20.94553 | 36121 ft | 424 kts | 332° |
| 2026-04-22 18:14 | 45.08741 | 20.90690 | 36123 ft | 424 kts | 332° |
| 2026-04-22 18:15 | 45.13963 | 20.86827 | 36125 ft | 424 kts | 332° |
| 2026-04-22 18:15 | 45.19186 | 20.82957 | 36123 ft | 424 kts | 332° |
| 2026-04-22 18:16 | 45.24407 | 20.79080 | 36134 ft | 423 kts | 332° |
| 2026-04-22 18:16 | 45.29623 | 20.75198 | 36133 ft | 424 kts | 332° |
| 2026-04-22 18:17 | 45.34845 | 20.71304 | 36131 ft | 424 kts | 332° |
| 2026-04-22 18:17 | 45.40064 | 20.67405 | 36131 ft | 424 kts | 332° |
| 2026-04-22 18:18 | 45.45276 | 20.63501 | 36130 ft | 424 kts | 332° |
| 2026-04-22 18:18 | 45.50501 | 20.59581 | 36136 ft | 424 kts | 333° |
| 2026-04-22 18:19 | 45.55719 | 20.55657 | 36135 ft | 424 kts | 333° |
| 2026-04-22 18:19 | 45.60932 | 20.51728 | 36131 ft | 424 kts | 333° |
| 2026-04-22 18:20 | 45.66149 | 20.47788 | 36129 ft | 424 kts | 333° |
| 2026-04-22 18:20 | 45.71366 | 20.43840 | 36134 ft | 424 kts | 333° |
| 2026-04-22 18:21 | 45.76581 | 20.39885 | 36126 ft | 424 kts | 333° |
| 2026-04-22 18:21 | 45.81792 | 20.35924 | 36128 ft | 424 kts | 333° |
| 2026-04-22 18:22 | 45.86990 | 20.31965 | 35892 ft | 420 kts | 333° |
| 2026-04-22 18:22 | 45.89551 | 20.30010 | 35649 ft | 414 kts | 333° |
| 2026-04-22 18:22 | 45.92085 | 20.28074 | 35409 ft | 411 kts | 333° |
| 2026-04-22 18:22 | 45.94603 | 20.26149 | 35179 ft | 410 kts | 333° |
| 2026-04-22 18:23 | 45.97111 | 20.24231 | 34948 ft | 411 kts | 333° |
| 2026-04-22 18:23 | 45.99648 | 20.22287 | 34719 ft | 411 kts | 333° |
| 2026-04-22 18:23 | 46.02191 | 20.20337 | 34492 ft | 412 kts | 333° |
| 2026-04-22 18:24 | 46.07218 | 20.16476 | 34176 ft | 413 kts | 333° |
| 2026-04-22 18:24 | 46.09759 | 20.14521 | 34137 ft | 414 kts | 333° |
| 2026-04-22 18:25 | 46.17385 | 20.08636 | 34129 ft | 415 kts | 333° |
| 2026-04-22 18:25 | 46.22475 | 20.04579 | 34126 ft | 415 kts | 332° |
| 2026-04-22 18:26 | 46.29889 | 19.98599 | 34126 ft | 416 kts | 333° |
| 2026-04-22 18:26 | 46.34944 | 19.94523 | 34125 ft | 416 kts | 333° |
| 2026-04-22 18:27 | 46.40002 | 19.90441 | 34123 ft | 416 kts | 333° |
| 2026-04-22 18:27 | 46.45063 | 19.86351 | 34123 ft | 417 kts | 333° |
| 2026-04-22 18:28 | 46.50125 | 19.82250 | 34119 ft | 417 kts | 333° |
| 2026-04-22 18:28 | 46.55188 | 19.78140 | 34122 ft | 417 kts | 333° |
| 2026-04-22 18:29 | 46.59439 | 19.74682 | 34103 ft | 417 kts | 333° |
| 2026-04-22 18:29 | 46.64503 | 19.70554 | 34112 ft | 417 kts | 333° |
| 2026-04-22 18:30 | 46.72070 | 19.64370 | 34122 ft | 418 kts | 333° |
| 2026-04-22 18:31 | 46.77169 | 19.60190 | 34118 ft | 418 kts | 334° |
| 2026-04-22 18:31 | 46.82204 | 19.56056 | 34122 ft | 418 kts | 334° |
| 2026-04-22 18:32 | 46.87305 | 19.51857 | 34106 ft | 418 kts | 334° |
| 2026-04-22 18:32 | 46.92335 | 19.47708 | 34109 ft | 418 kts | 334° |
| 2026-04-22 18:33 | 46.97396 | 19.43524 | 34114 ft | 418 kts | 334° |
| 2026-04-22 18:33 | 47.02444 | 19.39341 | 34115 ft | 418 kts | 334° |
| 2026-04-22 18:34 | 47.07504 | 19.35140 | 34116 ft | 418 kts | 334° |
| 2026-04-22 18:34 | 47.12492 | 19.30985 | 33825 ft | 406 kts | 334° |
| 2026-04-22 18:34 | 47.14919 | 19.28959 | 33544 ft | 398 kts | 335° |
| 2026-04-22 18:35 | 47.17311 | 19.26962 | 33191 ft | 393 kts | 335° |
| 2026-04-22 18:35 | 47.19679 | 19.24986 | 32813 ft | 390 kts | 335° |
| 2026-04-22 18:35 | 47.22027 | 19.23023 | 32443 ft | 387 kts | 335° |
| 2026-04-22 18:35 | 47.24352 | 19.21079 | 32081 ft | 384 kts | 335° |
| 2026-04-22 18:36 | 47.26697 | 19.19115 | 31720 ft | 381 kts | 336° |
| 2026-04-22 18:36 | 47.28959 | 19.17218 | 31368 ft | 378 kts | 336° |
| 2026-04-22 18:36 | 47.31236 | 19.15300 | 31016 ft | 376 kts | 334° |
| 2026-04-22 18:36 | 47.33323 | 19.12953 | 30642 ft | 382 kts | 320° |
| 2026-04-22 18:37 | 47.35023 | 19.09906 | 30311 ft | 389 kts | 308° |
| 2026-04-22 18:37 | 47.36311 | 19.06340 | 29916 ft | 397 kts | 300° |
| 2026-04-22 18:37 | 47.37464 | 19.02636 | 29497 ft | 397 kts | 299° |
| 2026-04-22 18:37 | 47.38537 | 18.99084 | 29123 ft | 393 kts | 299° |
| 2026-04-22 18:38 | 47.39630 | 18.95465 | 28757 ft | 389 kts | 299° |
| 2026-04-22 18:38 | 47.40747 | 18.91804 | 28411 ft | 385 kts | 300° |
| 2026-04-22 18:38 | 47.41849 | 18.88226 | 28033 ft | 382 kts | 300° |
| 2026-04-22 18:39 | 47.44038 | 18.81176 | 27317 ft | 375 kts | 300° |
| 2026-04-22 18:39 | 47.45133 | 18.77658 | 26987 ft | 372 kts | 300° |
| 2026-04-22 18:39 | 47.46214 | 18.74182 | 26631 ft | 369 kts | 300° |
| 2026-04-22 18:39 | 47.47279 | 18.70753 | 26287 ft | 366 kts | 300° |
| 2026-04-22 18:40 | 47.48339 | 18.67338 | 25944 ft | 364 kts | 300° |
| 2026-04-22 18:40 | 47.49388 | 18.63947 | 25595 ft | 361 kts | 300° |
| 2026-04-22 18:40 | 47.50429 | 18.60583 | 25270 ft | 359 kts | 300° |
| 2026-04-22 18:40 | 47.51463 | 18.57237 | 24934 ft | 356 kts | 300° |
| 2026-04-22 18:41 | 47.52487 | 18.53916 | 24600 ft | 354 kts | 300° |
| 2026-04-22 18:41 | 47.53508 | 18.50602 | 24273 ft | 352 kts | 300° |
| 2026-04-22 18:41 | 47.54458 | 18.47259 | 23942 ft | 353 kts | 295° |
| 2026-04-22 18:41 | 47.55240 | 18.43820 | 23594 ft | 353 kts | 292° |
| 2026-04-22 18:42 | 47.55958 | 18.40357 | 23219 ft | 351 kts | 292° |
| 2026-04-22 18:42 | 47.56659 | 18.36903 | 22864 ft | 348 kts | 292° |
| 2026-04-22 18:42 | 47.57356 | 18.33489 | 22540 ft | 345 kts | 292° |
| 2026-04-22 18:42 | 47.58055 | 18.30100 | 22206 ft | 342 kts | 292° |
| 2026-04-22 18:43 | 47.58754 | 18.26745 | 21848 ft | 339 kts | 292° |
| 2026-04-22 18:43 | 47.59449 | 18.23428 | 21561 ft | 336 kts | 292° |
| 2026-04-22 18:43 | 47.60141 | 18.20138 | 21235 ft | 334 kts | 292° |
| 2026-04-22 18:43 | 47.60832 | 18.16856 | 20909 ft | 332 kts | 292° |
| 2026-04-22 18:44 | 47.61518 | 18.13597 | 20594 ft | 331 kts | 292° |
| 2026-04-22 18:44 | 47.62202 | 18.10344 | 20273 ft | 332 kts | 292° |
| 2026-04-22 18:44 | 47.62891 | 18.07071 | 19949 ft | 331 kts | 292° |
| 2026-04-22 18:44 | 47.63571 | 18.03825 | 19634 ft | 329 kts | 292° |
| 2026-04-22 18:45 | 47.64249 | 18.00585 | 19308 ft | 327 kts | 292° |
| 2026-04-22 18:45 | 47.64888 | 17.97526 | 19013 ft | 326 kts | 292° |
| 2026-04-22 18:45 | 47.65556 | 17.94327 | 18697 ft | 324 kts | 292° |
| 2026-04-22 18:45 | 47.66220 | 17.91138 | 18372 ft | 322 kts | 292° |
| 2026-04-22 18:46 | 47.66879 | 17.87970 | 18004 ft | 320 kts | 292° |
| 2026-04-22 18:46 | 47.67532 | 17.84826 | 17686 ft | 318 kts | 292° |
| 2026-04-22 18:46 | 47.68180 | 17.81704 | 17366 ft | 315 kts | 292° |
| 2026-04-22 18:46 | 47.68823 | 17.78598 | 17071 ft | 316 kts | 292° |
| 2026-04-22 18:47 | 47.69471 | 17.75472 | 16749 ft | 318 kts | 292° |
| 2026-04-22 18:47 | 47.70120 | 17.72332 | 16434 ft | 319 kts | 291° |
| 2026-04-22 18:47 | 47.70770 | 17.69178 | 16114 ft | 320 kts | 291° |
| 2026-04-22 18:47 | 47.71422 | 17.66010 | 15796 ft | 321 kts | 291° |
| 2026-04-22 18:48 | 47.72072 | 17.62847 | 15464 ft | 320 kts | 291° |
| 2026-04-22 18:48 | 47.72718 | 17.59695 | 15141 ft | 317 kts | 291° |
| 2026-04-22 18:48 | 47.73357 | 17.56575 | 14826 ft | 314 kts | 291° |
| 2026-04-22 18:48 | 47.73989 | 17.53481 | 14509 ft | 312 kts | 291° |
| 2026-04-22 18:49 | 47.74583 | 17.50394 | 14186 ft | 312 kts | 284° |
| 2026-04-22 18:49 | 47.74602 | 17.47180 | 14011 ft | 311 kts | 268° |
| 2026-04-22 18:49 | 47.74361 | 17.44023 | 13810 ft | 305 kts | 267° |
| 2026-04-22 18:49 | 47.74113 | 17.40932 | 13619 ft | 298 kts | 267° |
| 2026-04-22 18:50 | 47.73875 | 17.37905 | 13437 ft | 292 kts | 268° |
| 2026-04-22 18:50 | 47.73649 | 17.34942 | 13275 ft | 285 kts | 268° |
| 2026-04-22 18:50 | 47.73420 | 17.32084 | 13096 ft | 274 kts | 268° |
| 2026-04-22 18:50 | 47.73192 | 17.29298 | 12715 ft | 270 kts | 268° |
| 2026-04-22 18:51 | 47.73052 | 17.26541 | 12292 ft | 265 kts | 277° |
| 2026-04-22 18:51 | 47.73207 | 17.23835 | 11897 ft | 261 kts | 281° |
| 2026-04-22 18:51 | 47.73425 | 17.21184 | 11512 ft | 258 kts | 282° |
| 2026-04-22 18:51 | 47.73643 | 17.18543 | 11120 ft | 256 kts | 281° |
| 2026-04-22 18:52 | 47.73851 | 17.15922 | 10757 ft | 257 kts | 281° |
| 2026-04-22 18:52 | 47.74052 | 17.13262 | 10381 ft | 261 kts | 281° |
| 2026-04-22 18:52 | 47.74251 | 17.10548 | 9962 ft | 266 kts | 280° |
| 2026-04-22 18:52 | 47.74442 | 17.07836 | 9616 ft | 261 kts | 280° |
| 2026-04-22 18:53 | 47.74621 | 17.05201 | 9319 ft | 253 kts | 281° |
| 2026-04-22 18:53 | 47.74873 | 17.02638 | 8981 ft | 250 kts | 292° |
| 2026-04-22 18:53 | 47.75561 | 17.00291 | 8642 ft | 247 kts | 300° |
| 2026-04-22 18:53 | 47.76260 | 16.98094 | 8322 ft | 245 kts | 300° |
| 2026-04-22 18:54 | 47.76960 | 16.95826 | 8036 ft | 240 kts | 299° |
| 2026-04-22 18:54 | 47.77644 | 16.93574 | 7778 ft | 238 kts | 299° |
| 2026-04-22 18:54 | 47.78315 | 16.91333 | 7519 ft | 237 kts | 298° |
| 2026-04-22 18:54 | 47.78979 | 16.89096 | 7261 ft | 236 kts | 298° |
| 2026-04-22 18:55 | 47.79638 | 16.86862 | 7003 ft | 235 kts | 298° |
| 2026-04-22 18:55 | 47.80290 | 16.84638 | 6750 ft | 234 kts | 298° |
| 2026-04-22 18:55 | 47.80929 | 16.82449 | 6471 ft | 228 kts | 298° |
| 2026-04-22 18:55 | 47.81558 | 16.80293 | 6217 ft | 226 kts | 298° |
| 2026-04-22 18:56 | 47.82181 | 16.78153 | 5969 ft | 225 kts | 298° |
| 2026-04-22 18:56 | 47.82802 | 16.76018 | 5735 ft | 223 kts | 298° |
| 2026-04-22 18:56 | 47.83407 | 16.73929 | 5518 ft | 216 kts | 298° |
| 2026-04-22 18:56 | 47.83997 | 16.71890 | 5284 ft | 213 kts | 298° |
| 2026-04-22 18:57 | 47.84671 | 16.69942 | 5022 ft | 209 kts | 315° |
| 2026-04-22 18:57 | 47.85880 | 16.68903 | 4803 ft | 200 kts | 346° |
| 2026-04-22 18:57 | 47.87228 | 16.68352 | 4581 ft | 202 kts | 345° |
| 2026-04-22 18:57 | 47.88571 | 16.67760 | 4332 ft | 196 kts | 345° |
| 2026-04-22 18:58 | 47.89834 | 16.67212 | 4111 ft | 182 kts | 345° |
| 2026-04-22 18:58 | 47.91018 | 16.66706 | 3921 ft | 173 kts | 346° |
| 2026-04-22 18:58 | 47.92145 | 16.66228 | 3712 ft | 164 kts | 346° |
| 2026-04-22 18:58 | 47.93199 | 16.65779 | 3562 ft | 153 kts | 346° |
| 2026-04-22 18:59 | 47.94198 | 16.65356 | 3405 ft | 147 kts | 346° |
| 2026-04-22 18:59 | 47.95181 | 16.64940 | 3311 ft | 145 kts | 346° |
| 2026-04-22 18:59 | 47.96155 | 16.64527 | 3189 ft | 149 kts | 345° |
| 2026-04-22 18:59 | 47.97144 | 16.64110 | 2992 ft | 148 kts | 345° |
| 2026-04-22 19:00 | 47.98123 | 16.63690 | 2819 ft | 147 kts | 345° |
| 2026-04-22 19:00 | 47.99094 | 16.63278 | 2619 ft | 144 kts | 345° |
| 2026-04-22 19:00 | 48.00039 | 16.62878 | 2432 ft | 142 kts | 345° |
| 2026-04-22 19:00 | 48.00983 | 16.62478 | 2244 ft | 142 kts | 345° |
| 2026-04-22 19:01 | 48.01913 | 16.62083 | 2044 ft | 133 kts | 345° |
| 2026-04-22 19:01 | 48.02766 | 16.61721 | 1887 ft | 128 kts | 345° |
| 2026-04-22 19:01 | 48.03644 | 16.61349 | 1720 ft | 135 kts | 345° |
| 2026-04-22 19:01 | 48.04557 | 16.60960 | 1507 ft | 136 kts | 346° |
| 2026-04-22 19:02 | 48.05465 | 16.60578 | 1322 ft | 137 kts | 344° |
| 2026-04-22 19:02 | 48.06403 | 16.60178 | 1147 ft | 143 kts | 343° |
| 2026-04-22 19:02 | 48.07359 | 16.59773 | 926 ft | 143 kts | 343° |
| 2026-04-22 19:02 | 48.08304 | 16.59373 | 744 ft | 139 kts | 341° |
| 2026-04-22 19:03 | 48.09229 | 16.58981 | 626 ft | 136 kts | 342° |
| 2026-04-22 19:03 | 48.10055 | 16.58630 | 613 ft | 102 kts | 344° |
| 2026-04-22 19:03 | 48.10557 | 16.58415 | 611 ft | 51 kts | 343° |
| 2026-04-22 19:03 | 48.10789 | 16.58192 | 608 ft | 31 kts | 315° |
| 2026-04-22 19:04 | 48.10852 | 16.58094 | 611 ft | 0 kts | 315° |
| 2026-04-22 19:05 | 48.10855 | 16.58090 | 614 ft | 2 kts | 315° |
| 2026-04-22 19:06 | 48.10884 | 16.58048 | 619 ft | 10 kts | 315° |
| 2026-04-22 19:06 | 48.10945 | 16.57978 | 611 ft | 12 kts | 336° |
| 2026-04-22 19:06 | 48.11020 | 16.57942 | 615 ft | 11 kts | 343° |
| 2026-04-22 19:07 | 48.11129 | 16.57802 | 616 ft | 11 kts | 295° |
| 2026-04-22 19:07 | 48.11161 | 16.57704 | 618 ft | 10 kts | 297° |
| 2026-04-22 19:07 | 48.11193 | 16.57609 | 613 ft | 10 kts | 296° |
| 2026-04-22 19:07 | 48.11223 | 16.57516 | 615 ft | 10 kts | 296° |
| 2026-04-22 19:08 | 48.11252 | 16.57425 | 616 ft | 10 kts | 295° |
| 2026-04-22 19:08 | 48.11281 | 16.57337 | 614 ft | 9 kts | 296° |
| 2026-04-22 19:08 | 48.11309 | 16.57252 | 613 ft | 9 kts | 296° |
| 2026-04-22 19:08 | 48.11339 | 16.57161 | 614 ft | 11 kts | 296° |
| 2026-04-22 19:09 | 48.11380 | 16.57035 | 613 ft | 16 kts | 295° |
| 2026-04-22 19:09 | 48.11437 | 16.56857 | 616 ft | 22 kts | 296° |
| 2026-04-22 19:09 | 48.11507 | 16.56643 | 617 ft | 23 kts | 296° |
| 2026-04-22 19:09 | 48.11575 | 16.56434 | 619 ft | 22 kts | 296° |
| 2026-04-22 19:10 | 48.11643 | 16.56230 | 610 ft | 22 kts | 296° |
| 2026-04-22 19:10 | 48.11707 | 16.56032 | 611 ft | 21 kts | 296° |
| 2026-04-22 19:10 | 48.11770 | 16.55840 | 620 ft | 20 kts | 296° |
| 2026-04-22 19:10 | 48.11831 | 16.55653 | 608 ft | 20 kts | 296° |
| 2026-04-22 19:11 | 48.11896 | 16.55477 | 613 ft | 19 kts | 319° |
| 2026-04-22 19:11 | 48.12005 | 16.55503 | 611 ft | 15 kts | 26° |
| 2026-04-22 19:11 | 48.12049 | 16.55535 | 611 ft | 2 kts | 25° |
| 2026-04-22 19:11 | 48.12070 | 16.55550 | 616 ft | 6 kts | 25° |
| 2026-04-22 19:12 | 48.12099 | 16.55566 | 608 ft | 0 kts | 353° |
| 2026-04-22 19:12 | 48.12099 | 16.55565 | 608 ft | 0 kts | 345° |
| 2026-04-22 19:12 | 48.12101 | 16.55562 | 608 ft | 1 kts | 324° |
| 2026-04-22 19:12 | 48.12117 | 16.55517 | 612 ft | 7 kts | 287° |
| 2026-04-22 19:13 | 48.12122 | 16.55499 | 621 ft | 0 kts | 295° |